Time;durP1;ratioP1;P1;durP2;ratioP2;P2;SDS_P1;SDS_P2;PMS_P1;PMS_P2;Temp;Humidity;BMP_temperature;BMP_pressure;BME280_temperature;BME280_humidity;BME280_pressure;Samples;Min_cycle;Max_cycle;Signal;HPM_P1;HPM_P2
2023/03/10 00:01:10;;;;;;;4.53;4.20;;;;;;;;;;5004044;28;20034;-69
2023/03/10 00:03:35;;;;;;;4.50;4.10;;;;;;;;;;5006073;28;20038;-69
2023/03/10 00:06:01;;;;;;;4.38;3.97;;;;;;;;;;5003490;28;20033;-70
2023/03/10 00:08:27;;;;;;;5.65;4.53;;;;;;;;;;5006357;28;20041;-68
2023/03/10 00:10:52;;;;;;;4.95;3.95;;;;;;;;;;5005790;28;20033;-69
2023/03/10 00:13:18;;;;;;;7.18;4.00;;;;;;;;;;5003763;28;20490;-70
2023/03/10 00:15:44;;;;;;;7.30;4.70;;;;;;;;;;5003242;28;20057;-69
2023/03/10 00:18:09;;;;;;;4.18;3.80;;;;;;;;;;5006438;28;20539;-71
2023/03/10 00:20:35;;;;;;;4.05;3.75;;;;;;;;;;5003645;28;20042;-69
2023/03/10 00:23:00;;;;;;;5.97;4.30;;;;;;;;;;5001766;28;20084;-71
2023/03/10 00:25:26;;;;;;;4.32;3.90;;;;;;;;;;5001017;28;20048;-70
2023/03/10 00:27:51;;;;;;;4.32;3.90;;;;;;;;;;5001582;28;20045;-70
2023/03/10 00:30:17;;;;;;;4.75;4.18;;;;;;;;;;5002073;28;20029;-67
2023/03/10 00:32:43;;;;;;;4.43;4.10;;;;;;;;;;4999953;28;20065;-70
2023/03/10 00:35:08;;;;;;;4.88;4.15;;;;;;;;;;4999420;28;20038;-70
2023/03/10 00:37:37;;;;;;;5.15;4.00;;;;;;;;;;4997773;28;20042;-71
2023/03/10 00:40:09;;;;;;;4.05;3.72;;;;;;;;;;4998538;28;20100;-68
2023/03/10 00:42:35;;;;;;;4.35;3.95;;;;;;;;;;5005265;28;20065;-72
2023/03/10 00:45:01;;;;;;;4.47;4.00;;;;;;;;;;5002391;28;20521;-68
2023/03/10 00:47:26;;;;;;;4.68;4.00;;;;;;;;;;5007312;28;20084;-70
2023/03/10 00:49:53;;;;;;;4.20;3.90;;;;;;;;;;5003630;28;20042;-68
2023/03/10 00:52:19;;;;;;;6.47;4.10;;;;;;;;;;5007218;28;20039;-70
2023/03/10 00:54:44;;;;;;;5.45;4.40;;;;;;;;;;4995527;28;20061;-70
2023/03/10 00:57:10;;;;;;;6.20;4.38;;;;;;;;;;4998829;28;20520;-69
2023/03/10 00:59:35;;;;;;;4.10;3.83;;;;;;;;;;5003780;28;20061;-70
2023/03/10 01:02:01;;;;;;;4.57;4.18;;;;;;;;;;5005079;28;20030;-71
2023/03/10 01:04:30;;;;;;;5.10;3.97;;;;;;;;;;5008346;28;20395;-71
2023/03/10 01:06:55;;;;;;;3.88;3.67;;;;;;;;;;5004118;28;20153;-70
2023/03/10 01:09:21;;;;;;;5.47;4.25;;;;;;;;;;5003736;28;20041;-70
2023/03/10 01:11:46;;;;;;;6.20;4.15;;;;;;;;;;5006999;28;20037;-71
2023/03/10 01:14:14;;;;;;;5.05;4.28;;;;;;;;;;5003614;28;20034;-71
2023/03/10 01:16:41;;;;;;;4.40;3.92;;;;;;;;;;5001962;28;20030;-67
2023/03/10 01:19:06;;;;;;;5.13;4.00;;;;;;;;;;5006362;28;20091;-71
2023/03/10 01:21:35;;;;;;;4.22;3.90;;;;;;;;;;5008500;28;20114;-67
2023/03/10 01:24:02;;;;;;;4.40;4.03;;;;;;;;;;5003752;28;20545;-67
2023/03/10 01:26:28;;;;;;;4.95;4.00;;;;;;;;;;5003857;28;20197;-71
2023/03/10 01:28:54;;;;;;;5.40;4.40;;;;;;;;;;5003136;28;20156;-70
2023/03/10 01:31:20;;;;;;;5.95;3.70;;;;;;;;;;5007822;28;20503;-70
2023/03/10 01:33:47;;;;;;;4.00;3.70;;;;;;;;;;5002421;28;20030;-70
2023/03/10 01:36:18;;;;;;;4.85;3.90;;;;;;;;;;5003310;28;20133;-69
2023/03/10 01:38:45;;;;;;;4.60;4.03;;;;;;;;;;5007572;28;20079;-69
2023/03/10 01:41:12;;;;;;;3.70;3.50;;;;;;;;;;5001538;28;20040;-70
2023/03/10 01:43:43;;;;;;;4.30;3.92;;;;;;;;;;5005801;28;20038;-68
2023/03/10 01:46:52;;;;;;;4.00;3.67;;;;;;;;;;5004338;28;20117;-70
2023/03/10 01:49:53;;;;;;;4.50;3.70;;;;;;;;;;4983645;28;20046;-68
2023/03/10 01:52:24;;;;;;;4.93;3.90;;;;;;;;;;4983397;28;20049;-70
2023/03/10 01:54:56;;;;;;;5.20;3.65;;;;;;;;;;5005088;28;20099;-70
2023/03/10 01:57:25;;;;;;;5.32;3.95;;;;;;;;;;4987691;28;20060;-69
2023/03/10 01:59:53;;;;;;;4.10;3.80;;;;;;;;;;4988001;28;20042;-68
2023/03/10 02:02:19;;;;;;;4.70;3.90;;;;;;;;;;4987703;28;20069;-66
2023/03/10 02:04:47;;;;;;;4.40;3.80;;;;;;;;;;5003392;28;20037;-67
2023/03/10 02:07:16;;;;;;;5.32;3.97;;;;;;;;;;5004052;28;20081;-68
2023/03/10 02:09:44;;;;;;;4.00;3.65;;;;;;;;;;4988078;28;20516;-69
2023/03/10 02:12:11;;;;;;;13.10;3.88;;;;;;;;;;4986379;28;20552;-66
2023/03/10 02:14:38;;;;;;;4.95;4.00;;;;;;;;;;5005149;28;20042;-65
2023/03/10 02:17:07;;;;;;;3.95;3.70;;;;;;;;;;4988032;28;20537;-68
2023/03/10 02:19:45;;;;;;;4.25;3.95;;;;;;;;;;5004448;28;20049;-66
2023/03/10 02:22:11;;;;;;;3.83;3.50;;;;;;;;;;4998858;28;20065;-68
2023/03/10 02:25:02;;;;;;;4.82;3.58;;;;;;;;;;4972222;28;20058;-67
2023/03/10 02:27:36;;;;;;;3.88;3.58;;;;;;;;;;5005198;28;20132;-67
2023/03/10 02:30:20;;;;;;;4.20;3.80;;;;;;;;;;5004102;28;20130;-67
2023/03/10 02:32:56;;;;;;;4.82;3.75;;;;;;;;;;5022537;28;20041;-67
2023/03/10 02:35:22;;;;;;;4.10;3.50;;;;;;;;;;5007608;28;20048;-68
2023/03/10 02:37:55;;;;;;;4.10;3.80;;;;;;;;;;5004037;28;20169;-66
2023/03/10 02:40:33;;;;;;;4.05;3.75;;;;;;;;;;5004189;28;20042;-69
2023/03/10 02:43:25;;;;;;;4.28;3.80;;;;;;;;;;5005921;28;20560;-67
2023/03/10 02:45:59;;;;;;;3.95;3.53;;;;;;;;;;5005806;28;20033;-68
2023/03/10 02:48:28;;;;;;;5.38;3.95;;;;;;;;;;5003226;28;20050;-68
2023/03/10 02:50:55;;;;;;;3.85;3.55;;;;;;;;;;5021264;28;20049;-69
2023/03/10 02:53:24;;;;;;;3.92;3.67;;;;;;;;;;5004716;28;20521;-68
2023/03/10 02:55:51;;;;;;;4.10;3.80;;;;;;;;;;5007017;28;20037;-67
2023/03/10 02:58:17;;;;;;;4.20;3.90;;;;;;;;;;5009824;28;20037;-65
2023/03/10 03:00:45;;;;;;;3.55;3.40;;;;;;;;;;5006238;28;20031;-69
2023/03/10 03:03:13;;;;;;;4.18;3.70;;;;;;;;;;4990567;28;20047;-69
2023/03/10 03:05:39;;;;;;;3.90;3.60;;;;;;;;;;5009312;28;20064;-68
2023/03/10 03:08:06;;;;;;;3.67;3.38;;;;;;;;;;5010848;28;20495;-66
2023/03/10 03:10:33;;;;;;;3.58;3.38;;;;;;;;;;5005762;28;20082;-69
2023/03/10 03:12:59;;;;;;;3.50;3.30;;;;;;;;;;5007445;28;20034;-69
2023/03/10 03:15:26;;;;;;;3.67;3.47;;;;;;;;;;5005273;28;20034;-66
2023/03/10 03:17:57;;;;;;;3.50;3.30;;;;;;;;;;5006004;28;20037;-69
2023/03/10 03:20:25;;;;;;;3.40;3.30;;;;;;;;;;5000500;28;20125;-68
2023/03/10 03:22:51;;;;;;;3.60;3.40;;;;;;;;;;5005521;28;20029;-67
2023/03/10 03:25:20;;;;;;;3.30;3.20;;;;;;;;;;5008750;28;20041;-67
2023/03/10 03:27:47;;;;;;;3.50;3.30;;;;;;;;;;5007765;28;20042;-67
2023/03/10 03:30:17;;;;;;;6.65;3.40;;;;;;;;;;4991938;28;20128;-70
2023/03/10 03:32:42;;;;;;;3.55;3.28;;;;;;;;;;5008484;28;20062;-68
2023/03/10 03:35:12;;;;;;;3.50;3.35;;;;;;;;;;5005427;28;20073;-68
2023/03/10 03:37:37;;;;;;;3.80;3.60;;;;;;;;;;5002776;28;20069;-67
2023/03/10 03:40:11;;;;;;;3.53;3.33;;;;;;;;;;5004079;28;20121;-70
2023/03/10 03:42:39;;;;;;;3.45;3.20;;;;;;;;;;5007677;28;20073;-66
2023/03/10 03:45:06;;;;;;;3.80;3.60;;;;;;;;;;5021367;28;20044;-68
2023/03/10 03:47:31;;;;;;;3.50;3.30;;;;;;;;;;5004081;28;20052;-67
2023/03/10 03:49:57;;;;;;;3.92;3.58;;;;;;;;;;5008991;28;20120;-69
2023/03/10 03:52:23;;;;;;;3.53;3.22;;;;;;;;;;5008907;28;20093;-66
2023/03/10 03:54:49;;;;;;;3.63;3.33;;;;;;;;;;5008345;28;20041;-69
2023/03/10 03:57:14;;;;;;;4.20;3.90;;;;;;;;;;5003756;28;20105;-67
2023/03/10 03:59:41;;;;;;;3.75;3.55;;;;;;;;;;5005495;28;20049;-69
2023/03/10 04:02:06;;;;;;;4.43;3.95;;;;;;;;;;5004510;28;20046;-67
2023/03/10 04:04:32;;;;;;;4.00;3.70;;;;;;;;;;5005677;28;20052;-68
2023/03/10 04:06:59;;;;;;;3.47;3.38;;;;;;;;;;5004928;28;20035;-68
2023/03/10 04:09:24;;;;;;;3.50;3.30;;;;;;;;;;5007696;28;20509;-67
2023/03/10 04:11:50;;;;;;;3.90;3.60;;;;;;;;;;5009297;28;20040;-68
2023/03/10 04:14:16;;;;;;;3.80;3.60;;;;;;;;;;5005636;28;20042;-70
2023/03/10 04:16:43;;;;;;;4.05;3.85;;;;;;;;;;4975987;28;20037;-69
2023/03/10 04:19:10;;;;;;;3.65;3.45;;;;;;;;;;5017634;28;20038;-67
2023/03/10 04:21:39;;;;;;;3.70;3.50;;;;;;;;;;5005785;28;20046;-68
2023/03/10 04:24:06;;;;;;;3.60;3.50;;;;;;;;;;5005175;28;20042;-66
2023/03/10 04:26:32;;;;;;;4.30;4.00;;;;;;;;;;5008238;28;20042;-69
2023/03/10 04:28:58;;;;;;;3.85;3.50;;;;;;;;;;5006826;28;20409;-69
2023/03/10 04:31:25;;;;;;;3.70;3.50;;;;;;;;;;5006845;28;20113;-69
2023/03/10 04:33:51;;;;;;;3.60;3.38;;;;;;;;;;5009489;28;20037;-67
2023/03/10 04:36:18;;;;;;;3.72;3.55;;;;;;;;;;5007155;28;20540;-68
2023/03/10 04:38:47;;;;;;;4.05;3.78;;;;;;;;;;5006748;28;20049;-71
2023/03/10 04:41:13;;;;;;;3.75;3.53;;;;;;;;;;5008231;28;20109;-68
2023/03/10 04:43:42;;;;;;;;;;;;;;;;;;5008018;28;20037;-68
2023/03/10 04:46:08;;;;;;;4.10;3.78;;;;;;;;;;5005159;28;20341;-70
2023/03/10 04:48:34;;;;;;;3.95;3.75;;;;;;;;;;5005554;28;20117;-69
2023/03/10 04:51:03;;;;;;;4.13;3.80;;;;;;;;;;5007919;28;20154;-68
2023/03/10 04:53:33;;;;;;;4.18;3.88;;;;;;;;;;5004093;28;20453;-70
2023/03/10 04:56:02;;;;;;;3.85;3.60;;;;;;;;;;5004564;28;20062;-71
2023/03/10 04:58:30;;;;;;;4.25;3.85;;;;;;;;;;5006555;28;20121;-68
2023/03/10 05:00:56;;;;;;;4.10;3.90;;;;;;;;;;5006869;28;20109;-69
2023/03/10 05:03:22;;;;;;;4.03;3.70;;;;;;;;;;5005769;28;20466;-67
2023/03/10 05:05:48;;;;;;;4.15;3.75;;;;;;;;;;5004343;28;20030;-67
2023/03/10 05:08:14;;;;;;;4.00;3.70;;;;;;;;;;5007418;28;20033;-69
2023/03/10 05:10:42;;;;;;;3.60;3.40;;;;;;;;;;5006668;28;20049;-66
2023/03/10 05:13:11;;;;;;;4.03;3.70;;;;;;;;;;5004779;28;20080;-70
2023/03/10 05:15:39;;;;;;;3.80;3.60;;;;;;;;;;5004390;28;20089;-69
2023/03/10 05:18:07;;;;;;;4.25;3.47;;;;;;;;;;5006246;28;20030;-67
2023/03/10 05:20:34;;;;;;;4.00;3.80;;;;;;;;;;5000348;28;20042;-66
2023/03/10 05:23:00;;;;;;;3.90;3.70;;;;;;;;;;5005062;28;20069;-70
2023/03/10 05:25:27;;;;;;;4.13;3.67;;;;;;;;;;5004010;28;20588;-68
2023/03/10 05:27:52;;;;;;;4.43;4.13;;;;;;;;;;4985075;28;20045;-67
2023/03/10 05:30:20;;;;;;;4.45;4.15;;;;;;;;;;5002224;28;20517;-70
2023/03/10 05:32:48;;;;;;;;;;;;;;;;;;5003559;28;20029;-68
2023/03/10 05:35:14;;;;;;;4.47;3.80;;;;;;;;;;5006275;28;19999;-69
2023/03/10 05:37:43;;;;;;;4.30;4.00;;;;;;;;;;5004485;28;20501;-68
2023/03/10 05:40:12;;;;;;;4.25;3.95;;;;;;;;;;5005566;28;20030;-69
2023/03/10 05:42:38;;;;;;;3.97;3.70;;;;;;;;;;5002087;28;20053;-70
2023/03/10 05:45:05;;;;;;;5.25;4.75;;;;;;;;;;5003760;28;20029;-68
2023/03/10 05:47:32;;;;;;;3.92;3.72;;;;;;;;;;5003150;28;20037;-68
2023/03/10 05:50:00;;;;;;;5.05;3.95;;;;;;;;;;5003829;28;20042;-69
2023/03/10 05:52:28;;;;;;;4.00;3.70;;;;;;;;;;5003898;28;20080;-68
2023/03/10 05:54:54;;;;;;;3.72;3.53;;;;;;;;;;5004231;28;20056;-69
2023/03/10 05:57:19;;;;;;;4.25;3.80;;;;;;;;;;5004550;28;20068;-68
2023/03/10 05:59:45;;;;;;;3.97;3.67;;;;;;;;;;5003577;28;20625;-69
2023/03/10 06:02:11;;;;;;;4.07;3.72;;;;;;;;;;5006374;28;20038;-67
2023/03/10 06:04:36;;;;;;;4.40;4.10;;;;;;;;;;5004459;28;20034;-70
2023/03/10 06:07:02;;;;;;;4.20;3.90;;;;;;;;;;5004942;28;20112;-68
2023/03/10 06:09:29;;;;;;;4.45;4.05;;;;;;;;;;5000750;28;20037;-68
2023/03/10 06:11:56;;;;;;;4.30;3.97;;;;;;;;;;5002030;28;20506;-68
2023/03/10 06:14:22;;;;;;;6.03;4.30;;;;;;;;;;5001085;28;20042;-70
2023/03/10 06:16:50;;;;;;;3.88;3.67;;;;;;;;;;4999768;28;20045;-69
2023/03/10 06:19:17;;;;;;;4.55;4.20;;;;;;;;;;4998415;28;20080;-69
2023/03/10 06:21:43;;;;;;;4.20;3.88;;;;;;;;;;5004455;28;20096;-70
2023/03/10 06:24:08;;;;;;;7.72;4.32;;;;;;;;;;5003059;28;20037;-70
2023/03/10 06:26:34;;;;;;;5.32;4.20;;;;;;;;;;5004567;28;20121;-70
2023/03/10 06:28:59;;;;;;;6.25;4.20;;;;;;;;;;5004573;28;20133;-69
2023/03/10 06:31:26;;;;;;;4.22;3.92;;;;;;;;;;5006166;28;20041;-70
2023/03/10 06:33:52;;;;;;;8.05;4.70;;;;;;;;;;5004465;28;20025;-70
2023/03/10 06:36:19;;;;;;;6.72;4.82;;;;;;;;;;5003757;28;20030;-72
2023/03/10 06:38:44;;;;;;;6.10;4.90;;;;;;;;;;5006175;28;20114;-70
2023/03/10 06:41:10;;;;;;;10.20;5.60;;;;;;;;;;5009797;28;20065;-71
2023/03/10 06:43:36;;;;;;;6.35;5.75;;;;;;;;;;5007697;28;20161;-72
2023/03/10 06:46:04;;;;;;;5.70;5.28;;;;;;;;;;5010488;28;20493;-69
2023/03/10 06:48:30;;;;;;;5.93;5.38;;;;;;;;;;5009819;28;20037;-71
2023/03/10 06:50:56;;;;;;;5.85;5.35;;;;;;;;;;5007738;28;20033;-70
2023/03/10 06:53:21;;;;;;;5.57;5.00;;;;;;;;;;5008285;28;20026;-70
2023/03/10 06:56:06;;;;;;;5.75;5.30;;;;;;;;;;5009195;28;20034;-70
2023/03/10 06:58:33;;;;;;;6.03;5.53;;;;;;;;;;5010026;28;20068;-71
2023/03/10 07:00:59;;;;;;;5.15;4.75;;;;;;;;;;5004547;28;20509;-71
2023/03/10 07:03:27;;;;;;;7.03;5.70;;;;;;;;;;5025690;28;20045;-70
2023/03/10 07:05:54;;;;;;;5.82;5.40;;;;;;;;;;5010012;28;20038;-71
2023/03/10 07:08:19;;;;;;;6.28;5.72;;;;;;;;;;5011047;28;20664;-70
2023/03/10 07:10:45;;;;;;;5.60;5.20;;;;;;;;;;5009876;28;20091;-70
2023/03/10 07:13:14;;;;;;;5.40;5.10;;;;;;;;;;5009188;28;20041;-69
2023/03/10 07:15:40;;;;;;;5.55;5.07;;;;;;;;;;5010385;28;20044;-71
2023/03/10 07:18:06;;;;;;;5.43;5.13;;;;;;;;;;5009439;28;20053;-70
2023/03/10 07:20:32;;;;;;;5.93;5.45;;;;;;;;;;5009509;28;20038;-70
2023/03/10 07:22:57;;;;;;;5.60;5.30;;;;;;;;;;5008411;28;20081;-71
2023/03/10 07:25:24;;;;;;;4.60;4.40;;;;;;;;;;5009132;28;20121;-70
2023/03/10 07:27:50;;;;;;;4.80;4.53;;;;;;;;;;5007388;28;20489;-72
2023/03/10 07:30:16;;;;;;;5.60;4.70;;;;;;;;;;5008191;28;20056;-71
2023/03/10 07:32:42;;;;;;;5.35;4.85;;;;;;;;;;5010292;28;20401;-70
2023/03/10 07:35:08;;;;;;;5.60;5.20;;;;;;;;;;5007685;28;20041;-70
2023/03/10 07:37:37;;;;;;;5.55;5.25;;;;;;;;;;5008047;28;20037;-68
2023/03/10 07:40:04;;;;;;;4.93;4.68;;;;;;;;;;5008644;28;20046;-68
2023/03/10 07:42:30;;;;;;;5.00;4.60;;;;;;;;;;5009353;28;20068;-69
2023/03/10 07:44:56;;;;;;;5.60;5.20;;;;;;;;;;5006211;28;20069;-70
2023/03/10 07:47:22;;;;;;;5.18;4.88;;;;;;;;;;5008471;28;20119;-71
2023/03/10 07:49:48;;;;;;;5.68;5.18;;;;;;;;;;5006045;28;20432;-70
2023/03/10 07:52:15;;;;;;;5.68;5.00;;;;;;;;;;5010655;28;20041;-70
2023/03/10 07:54:41;;;;;;;5.55;5.15;;;;;;;;;;5007256;28;20033;-69
2023/03/10 07:57:06;;;;;;;5.88;5.25;;;;;;;;;;5008130;28;20044;-67
2023/03/10 07:59:32;;;;;;;6.28;5.65;;;;;;;;;;5007857;28;20050;-71
2023/03/10 08:01:57;;;;;;;5.90;5.40;;;;;;;;;;5006228;28;20493;-69
2023/03/10 08:04:23;;;;;;;5.45;5.07;;;;;;;;;;5004626;28;20034;-70
2023/03/10 08:06:48;;;;;;;5.05;4.70;;;;;;;;;;5011655;28;20052;-70
2023/03/10 08:09:14;;;;;;;5.22;4.90;;;;;;;;;;5017872;28;20100;-71
2023/03/10 08:11:39;;;;;;;4.97;4.68;;;;;;;;;;5014246;28;20137;-69
2023/03/10 08:14:05;;;;;;;5.00;4.70;;;;;;;;;;5006537;28;20061;-70
2023/03/10 08:16:31;;;;;;;5.13;4.72;;;;;;;;;;5001357;28;20564;-70
2023/03/10 08:18:57;;;;;;;7.15;5.75;;;;;;;;;;4999949;28;20390;-69
2023/03/10 08:21:23;;;;;;;5.63;5.20;;;;;;;;;;5004560;28;20042;-70
2023/03/10 08:23:48;;;;;;;6.47;5.13;;;;;;;;;;5002757;28;20030;-69
2023/03/10 08:26:16;;;;;;;6.75;4.82;;;;;;;;;;4998991;28;20042;-69
2023/03/10 08:28:42;;;;;;;5.88;5.28;;;;;;;;;;5001025;28;20034;-68
2023/03/10 08:31:16;;;;;;;5.50;4.78;;;;;;;;;;4999087;28;20066;-69
2023/03/10 08:33:43;;;;;;;5.20;4.90;;;;;;;;;;4999815;28;20541;-69
2023/03/10 08:36:14;;;;;;;6.38;5.38;;;;;;;;;;4995533;28;20033;-69
2023/03/10 08:38:40;;;;;;;5.80;5.30;;;;;;;;;;5006257;28;20124;-68
2023/03/10 08:41:20;;;;;;;5.50;5.00;;;;;;;;;;5001158;28;20494;-70
2023/03/10 08:43:46;;;;;;;6.75;5.50;;;;;;;;;;4999085;28;20096;-70
2023/03/10 08:46:12;;;;;;;5.68;5.28;;;;;;;;;;4999732;28;20033;-70
2023/03/10 08:48:38;;;;;;;5.53;5.10;;;;;;;;;;5003955;28;21355;-70
2023/03/10 08:51:05;;;;;;;5.60;5.20;;;;;;;;;;4999899;28;20154;-71
2023/03/10 08:53:32;;;;;;;5.40;5.15;;;;;;;;;;4997998;28;20030;-68
2023/03/10 08:55:58;;;;;;;5.53;5.22;;;;;;;;;;5002028;28;20042;-70
2023/03/10 08:58:24;;;;;;;5.82;5.30;;;;;;;;;;4999918;28;20061;-67
2023/03/10 09:00:50;;;;;;;6.25;5.85;;;;;;;;;;4994452;28;20042;-67
2023/03/10 09:03:16;;;;;;;6.18;5.78;;;;;;;;;;4986830;28;20026;-66
2023/03/10 09:05:42;;;;;;;6.53;6.13;;;;;;;;;;4998639;28;20038;-69
2023/03/10 09:08:07;;;;;;;6.22;5.82;;;;;;;;;;4998701;28;20556;-67
2023/03/10 09:10:34;;;;;;;6.75;6.15;;;;;;;;;;4999313;28;20068;-69
2023/03/10 09:13:00;;;;;;;7.10;6.50;;;;;;;;;;4998878;28;20285;-67
2023/03/10 09:15:25;;;;;;;6.72;6.13;;;;;;;;;;4998578;28;20041;-67
2023/03/10 09:17:51;;;;;;;8.23;6.50;;;;;;;;;;4993556;28;20038;-69
2023/03/10 09:20:24;;;;;;;7.00;6.50;;;;;;;;;;4999135;28;20040;-67
2023/03/10 09:22:55;;;;;;;7.07;6.63;;;;;;;;;;4996535;28;20034;-69
2023/03/10 09:25:21;;;;;;;7.05;6.55;;;;;;;;;;4997310;28;20057;-67
2023/03/10 09:27:48;;;;;;;7.38;6.68;;;;;;;;;;4990251;28;20567;-68
2023/03/10 09:30:14;;;;;;;7.18;6.72;;;;;;;;;;4989927;28;20545;-69
2023/03/10 09:32:40;;;;;;;7.65;6.65;;;;;;;;;;4990920;28;20046;-70
2023/03/10 09:35:06;;;;;;;7.28;6.78;;;;;;;;;;4993767;28;20742;-69
2023/03/10 09:37:32;;;;;;;9.18;7.07;;;;;;;;;;4992353;28;20091;-66
2023/03/10 09:39:58;;;;;;;7.95;7.18;;;;;;;;;;4997446;28;20770;-71
2023/03/10 09:42:30;;;;;;;6.68;6.20;;;;;;;;;;4995734;28;20026;-69
2023/03/10 09:45:19;;;;;;;6.22;5.85;;;;;;;;;;5000627;28;20037;-69
2023/03/10 09:47:51;;;;;;;6.88;6.22;;;;;;;;;;4999635;28;20053;-68
2023/03/10 09:50:39;;;;;;;6.78;6.38;;;;;;;;;;5001177;28;20042;-66
2023/03/10 09:53:08;;;;;;;6.28;5.93;;;;;;;;;;4999172;28;20085;-68
2023/03/10 09:55:40;;;;;;;6.22;5.82;;;;;;;;;;5002007;28;20046;-69
2023/03/10 09:58:13;;;;;;;6.05;5.65;;;;;;;;;;4994408;28;20038;-69
2023/03/10 10:00:41;;;;;;;5.78;5.47;;;;;;;;;;4996472;28;20551;-69
2023/03/10 10:03:20;;;;;;;6.20;5.80;;;;;;;;;;4995678;28;20042;-70
2023/03/10 10:05:47;;;;;;;5.90;5.50;;;;;;;;;;5000311;28;20289;-66
2023/03/10 10:08:23;;;;;;;7.95;5.68;;;;;;;;;;4986911;28;20037;-69
2023/03/10 10:10:58;;;;;;;6.93;6.40;;;;;;;;;;4998307;28;20038;-67
2023/03/10 10:13:28;;;;;;;6.30;5.80;;;;;;;;;;5000538;28;20509;-66
2023/03/10 10:16:28;;;;;;;6.70;6.18;;;;;;;;;;5002894;28;20153;-68
2023/03/10 10:19:01;;;;;;;6.53;5.93;;;;;;;;;;4989301;28;20564;-68
2023/03/10 10:21:36;;;;;;;6.28;5.88;;;;;;;;;;4995236;28;20061;-65
2023/03/10 10:24:02;;;;;;;5.88;5.40;;;;;;;;;;4996423;28;20034;-68
2023/03/10 10:26:28;;;;;;;5.68;5.40;;;;;;;;;;4997619;28;20034;-68
2023/03/10 10:28:59;;;;;;;5.50;4.97;;;;;;;;;;4996926;28;20041;-67
2023/03/10 10:31:30;;;;;;;6.93;6.32;;;;;;;;;;5001805;28;20104;-66
2023/03/10 10:33:56;;;;;;;5.75;5.45;;;;;;;;;;5002289;28;20496;-68
2023/03/10 10:36:31;;;;;;;7.15;5.85;;;;;;;;;;5000482;28;20037;-69
2023/03/10 10:38:59;;;;;;;5.95;5.45;;;;;;;;;;5002273;28;20820;-67
2023/03/10 10:41:30;;;;;;;5.45;5.15;;;;;;;;;;4999100;28;20061;-67
2023/03/10 10:44:04;;;;;;;6.10;5.70;;;;;;;;;;4997023;28;20042;-66
2023/03/10 10:46:31;;;;;;;6.28;5.68;;;;;;;;;;4997920;28;20048;-67
2023/03/10 10:49:32;;;;;;;6.18;5.72;;;;;;;;;;4999309;28;20040;-67
2023/03/10 10:52:01;;;;;;;5.80;5.18;;;;;;;;;;4980274;28;20521;-69
2023/03/10 10:54:29;;;;;;;5.18;4.85;;;;;;;;;;4980757;28;20051;-69
2023/03/10 10:56:57;;;;;;;5.78;5.47;;;;;;;;;;4980494;28;20070;-71
2023/03/10 10:59:34;;;;;;;5.47;5.07;;;;;;;;;;4977748;28;20133;-69
2023/03/10 11:02:03;;;;;;;5.30;4.90;;;;;;;;;;4978948;28;20490;-68
2023/03/10 11:04:43;;;;;;;5.38;5.00;;;;;;;;;;4981408;28;20126;-70
2023/03/10 11:07:16;;;;;;;6.00;5.60;;;;;;;;;;4977355;28;20035;-71
2023/03/10 11:09:41;;;;;;;6.55;6.07;;;;;;;;;;4977170;28;20042;-68
2023/03/10 11:12:18;;;;;;;5.82;5.47;;;;;;;;;;4979549;28;20228;-69
2023/03/10 11:15:02;;;;;;;5.07;4.78;;;;;;;;;;4978894;28;20049;-67
2023/03/10 11:17:37;;;;;;;5.93;5.28;;;;;;;;;;4979501;28;20042;-71
2023/03/10 11:20:10;;;;;;;5.70;5.40;;;;;;;;;;4978901;28;20184;-68
2023/03/10 11:22:36;;;;;;;5.43;4.93;;;;;;;;;;4974891;28;20813;-70
2023/03/10 11:25:15;;;;;;;5.82;5.43;;;;;;;;;;4983656;28;20038;-70
2023/03/10 11:27:57;;;;;;;6.00;5.50;;;;;;;;;;4992949;28;20510;-69
2023/03/10 11:30:46;;;;;;;5.63;5.10;;;;;;;;;;4998444;28;20038;-69
2023/03/10 11:33:39;;;;;;;5.50;5.10;;;;;;;;;;5003074;28;20100;-69
2023/03/10 11:36:19;;;;;;;5.35;5.05;;;;;;;;;;4999169;28;20038;-70
2023/03/10 11:38:48;;;;;;;5.50;5.10;;;;;;;;;;5003194;28;20045;-69
2023/03/10 11:41:18;;;;;;;5.57;5.18;;;;;;;;;;5003469;28;20092;-70
2023/03/10 11:44:02;;;;;;;5.43;5.13;;;;;;;;;;5002582;28;20038;-68
2023/03/10 11:47:03;;;;;;;5.78;5.30;;;;;;;;;;4996877;28;20033;-67
2023/03/10 11:49:35;;;;;;;5.93;5.43;;;;;;;;;;4995184;28;20466;-68
2023/03/10 11:52:09;;;;;;;5.80;5.32;;;;;;;;;;4998421;28;20397;-68
2023/03/10 11:54:41;;;;;;;5.60;5.15;;;;;;;;;;5000183;28;20062;-69
2023/03/10 11:57:20;;;;;;;5.88;5.50;;;;;;;;;;4989495;28;20038;-69
2023/03/10 11:59:58;;;;;;;5.63;5.32;;;;;;;;;;4998827;28;20054;-71
2023/03/10 12:02:43;;;;;;;5.35;4.95;;;;;;;;;;4997404;28;20131;-70
2023/03/10 12:05:20;;;;;;;5.93;5.28;;;;;;;;;;4995269;28;20121;-70
2023/03/10 12:07:49;;;;;;;5.38;5.07;;;;;;;;;;4995402;28;20069;-68
2023/03/10 12:10:16;;;;;;;;;;;;;;;;;;4983729;28;20045;-67
2023/03/10 12:12:44;;;;;;;5.72;5.30;;;;;;;;;;4994976;28;19918;-70
2023/03/10 12:15:18;;;;;;;4.87;4.57;;;;;;;;;;5000650;28;20048;-68
2023/03/10 12:21:43;;;;;;;5.72;5.32;;;;;;;;;;4990437;28;20610;-68
2023/03/10 12:24:42;;;;;;;5.45;5.15;;;;;;;;;;4993606;28;20038;-67
2023/03/10 12:27:08;;;;;;;5.78;5.30;;;;;;;;;;4997679;28;20490;-70
2023/03/10 12:29:36;;;;;;;6.22;5.63;;;;;;;;;;4995176;28;20540;-71
2023/03/10 12:32:02;;;;;;;5.10;4.80;;;;;;;;;;4998162;28;20038;-71
2023/03/10 12:34:30;;;;;;;4.93;4.63;;;;;;;;;;4998336;28;20046;-71
2023/03/10 12:37:05;;;;;;;5.03;4.82;;;;;;;;;;4997257;28;20038;-69
2023/03/10 12:39:42;;;;;;;5.30;5.00;;;;;;;;;;4996680;28;20316;-70
2023/03/10 12:42:31;;;;;;;5.93;5.30;;;;;;;;;;4995553;28;20034;-69
2023/03/10 12:45:20;;;;;;;5.35;5.05;;;;;;;;;;4994244;28;20108;-68
2023/03/10 12:47:51;;;;;;;5.40;5.10;;;;;;;;;;5002699;28;20049;-68
2023/03/10 12:50:45;;;;;;;5.40;5.10;;;;;;;;;;4996740;28;20046;-70
2023/03/10 12:53:10;;;;;;;5.63;5.20;;;;;;;;;;5000088;28;20038;-69
2023/03/10 12:55:39;;;;;;;5.68;5.38;;;;;;;;;;4998065;28;20038;-70
2023/03/10 12:58:18;;;;;;;5.15;4.78;;;;;;;;;;4989999;28;20565;-68
2023/03/10 13:00:48;;;;;;;5.50;5.10;;;;;;;;;;4996537;28;20150;-69
2023/03/10 13:03:36;;;;;;;5.00;4.80;;;;;;;;;;4997886;28;20123;-68
2023/03/10 13:06:17;;;;;;;5.28;4.90;;;;;;;;;;4999219;28;20060;-71
2023/03/10 13:08:51;;;;;;;5.20;4.90;;;;;;;;;;4999444;28;20042;-68
2023/03/10 13:11:33;;;;;;;5.55;5.18;;;;;;;;;;4995960;28;20045;-70
2023/03/10 13:14:17;;;;;;;5.28;4.97;;;;;;;;;;4995635;28;20081;-68
2023/03/10 13:16:59;;;;;;;5.60;5.20;;;;;;;;;;4992576;28;20584;-68
2023/03/10 13:19:28;;;;;;;4.85;4.65;;;;;;;;;;4999647;28;20133;-68
2023/03/10 13:21:54;;;;;;;4.93;4.70;;;;;;;;;;4123212;28;10000360;-69
2023/03/10 13:24:25;;;;;;;5.20;4.90;;;;;;;;;;4971764;28;20035;-71
2023/03/10 13:27:18;;;;;;;5.50;5.10;;;;;;;;;;4958216;28;20031;-72
2023/03/10 13:29:58;;;;;;;4.70;4.50;;;;;;;;;;4961660;28;20654;-70
2023/03/10 13:32:25;;;;;;;5.10;4.80;;;;;;;;;;4961758;28;20046;-70
2023/03/10 13:34:50;;;;;;;5.28;5.00;;;;;;;;;;4962290;28;20403;-70
2023/03/10 13:37:16;;;;;;;5.30;5.00;;;;;;;;;;4954373;28;20039;-71
2023/03/10 13:39:42;;;;;;;5.40;5.10;;;;;;;;;;4110463;28;10000462;-69
2023/03/10 13:42:24;;;;;;;5.03;4.82;;;;;;;;;;4997958;28;20042;-71
2023/03/10 13:44:49;;;;;;;5.25;4.97;;;;;;;;;;4994075;28;20818;-70
2023/03/10 13:47:26;;;;;;;5.32;5.03;;;;;;;;;;4999242;28;20034;-71
2023/03/10 13:49:58;;;;;;;5.35;5.05;;;;;;;;;;4996724;28;20744;-70
2023/03/10 13:52:26;;;;;;;5.38;5.07;;;;;;;;;;4991232;28;20040;-69
2023/03/10 13:55:13;;;;;;;4.50;4.30;;;;;;;;;;4997541;28;20505;-68
2023/03/10 13:57:40;;;;;;;4.90;4.60;;;;;;;;;;4995812;28;20053;-71
2023/03/10 14:00:09;;;;;;;4.68;4.38;;;;;;;;;;4993250;28;20062;-67
2023/03/10 14:02:39;;;;;;;4.38;4.07;;;;;;;;;;4997228;28;20053;-69
2023/03/10 14:05:07;;;;;;;4.63;4.43;;;;;;;;;;5000150;28;20037;-70
2023/03/10 14:07:35;;;;;;;4.90;4.70;;;;;;;;;;4999265;28;20038;-70
2023/03/10 14:10:04;;;;;;;5.28;4.80;;;;;;;;;;4124622;28;10000238;-69
2023/03/10 14:12:50;;;;;;;4.90;4.60;;;;;;;;;;4999427;28;20752;-68
2023/03/10 14:15:21;;;;;;;4.50;4.30;;;;;;;;;;4993984;28;20049;-69
2023/03/10 14:18:05;;;;;;;5.03;4.72;;;;;;;;;;4990865;28;20116;-69
2023/03/10 14:20:31;;;;;;;4.85;4.60;;;;;;;;;;4999044;28;20131;-69
2023/03/10 14:22:58;;;;;;;4.63;4.43;;;;;;;;;;4999078;28;20469;-68
2023/03/10 14:25:24;;;;;;;4.75;4.55;;;;;;;;;;4996033;28;20038;-69
2023/03/10 14:27:57;;;;;;;4.72;4.53;;;;;;;;;;4998465;28;20037;-71
2023/03/10 14:30:28;;;;;;;4.60;4.40;;;;;;;;;;4994961;28;20041;-70
2023/03/10 14:32:56;;;;;;;4.30;4.10;;;;;;;;;;4999936;28;20389;-70
2023/03/10 14:35:23;;;;;;;4.50;4.20;;;;;;;;;;5001163;28;20088;-69
2023/03/10 14:37:49;;;;;;;4.30;4.10;;;;;;;;;;5003165;28;20030;-69
2023/03/10 14:40:16;;;;;;;4.55;4.35;;;;;;;;;;4997404;28;20072;-69
2023/03/10 14:42:43;;;;;;;4.30;4.10;;;;;;;;;;4999093;28;20412;-70
2023/03/10 14:45:22;;;;;;;4.53;4.22;;;;;;;;;;4997352;28;20118;-70
2023/03/10 14:47:48;;;;;;;4.38;4.18;;;;;;;;;;5002672;28;20498;-67
2023/03/10 14:50:15;;;;;;;5.10;4.70;;;;;;;;;;4996570;28;20041;-68
2023/03/10 14:52:41;;;;;;;4.80;4.53;;;;;;;;;;4996129;28;20053;-69
2023/03/10 14:55:10;;;;;;;4.90;4.53;;;;;;;;;;4995605;28;20030;-70
2023/03/10 14:57:37;;;;;;;5.55;5.05;;;;;;;;;;4993037;28;20034;-69
2023/03/10 15:00:05;;;;;;;4.72;4.40;;;;;;;;;;4996017;28;20093;-70
2023/03/10 15:02:31;;;;;;;4.70;4.30;;;;;;;;;;5004471;28;20052;-68